Roque Bluffs, Maine
Current Conditions -  °F | °C
As of 3:55 PM on Tuesday 21 Oct 2014 (Local Time) from KBHB Reporting Station
Overcast Overcast  
Wind Chill: 12°   Ceiling: 2100
Heat Index: 12°   Visibility: 9mi
Dew Point: 10°   Wind: 5mph
Humidity: 88%   Direction: 70°ENE
Pressure: 30.07"   Gusts: NA
Location:  44.8808°N, 67.668°W
Report Text: KBHB 211955Z AUTO 07004KT 9SM BKN021 OVC037 12/10 A3007 RMK AO1
Loading
Personal Weather Stations






























Interactive Weather Map
Tropical Storm Tracking
New forecast layout! Learn more

10-Day Weather Forecast

Advertisements
Track Severe Weather on mobile